Time;durP1;ratioP1;P1;durP2;ratioP2;P2;SDS_P1;SDS_P2;PMS_P1;PMS_P2;Temp;Humidity;BMP_temperature;BMP_pressure;BME280_temperature;BME280_humidity;BME280_pressure;Samples;Min_cycle;Max_cycle;Signal;HPM_P1;HPM_P2
2022/10/11 00:00:19;;;;;;;27.02;18.08;;;;;;;;;;4737272;30;20049;-82
2022/10/11 00:53:27;;;;;;;26.55;22.90;;;;;;;;;;5381750;23;20024;-82
2022/10/11 00:57:03;;;;;;;29.60;23.60;;;;;;;;;;4924852;29;20080;-82
2022/10/11 01:00:05;;;;;;;29.55;23.30;;;;;;;;;;4841615;29;20190;-83
2022/10/11 01:03:29;;;;;;;27.88;22.88;;;;;;;;;;4846955;29;20042;-82
2022/10/11 01:06:25;;;;;;;31.27;24.70;;;;;;;;;;4789490;29;20103;-82
2022/10/11 01:09:40;;;;;;;31.60;24.50;;;;;;;;;;4752905;30;20033;-83
2022/10/11 01:15:42;;;;;;;34.08;26.10;;;;;;;;;;4777758;29;20031;-85
2022/10/11 01:31:04;;;;;;;32.75;25.48;;;;;;;;;;4716028;30;20072;-82
2022/10/11 01:52:21;;;;;;;36.80;29.08;;;;;;;;;;5404106;23;20036;-81
2022/10/11 01:54:56;;;;;;;39.47;28.13;;;;;;;;;;4903538;29;20042;-81
2022/10/11 01:57:51;;;;;;;40.28;30.38;;;;;;;;;;4904497;29;20133;-80
2022/10/11 02:03:43;;;;;;;38.38;29.08;;;;;;;;;;4904394;29;20033;-82
2022/10/11 02:10:16;;;;;;;35.67;26.40;;;;;;;;;;4794374;29;20034;-82
2022/10/11 02:16:24;;;;;;;38.10;28.83;;;;;;;;;;4773191;30;20047;-82
2022/10/11 02:22:08;;;;;;;38.28;28.42;;;;;;;;;;5212864;23;20061;-82
2022/10/11 02:28:14;;;;;;;37.50;29.23;;;;;;;;;;4885377;29;20021;-83
2022/10/11 02:34:22;;;;;;;33.77;26.83;;;;;;;;;;4814963;29;20018;-82
2022/10/11 03:14:33;;;;;;;44.53;30.98;;;;;;;;;;4986585;23;20073;-80
2022/10/11 03:17:26;;;;;;;43.25;31.75;;;;;;;;;;4882489;29;20066;-82
2022/10/11 03:20:43;;;;;;;39.75;32.10;;;;;;;;;;4819057;29;20019;-81
2022/10/11 03:38:37;;;;;;;39.47;31.52;;;;;;;;;;4904843;29;20028;-82
2022/10/11 03:54:00;;;;;;;52.70;39.08;;;;;;;;;;4865943;29;20022;-82
2022/10/11 03:57:17;;;;;;;54.22;39.15;;;;;;;;;;4847334;29;20019;-83
2022/10/11 04:00:32;;;;;;;45.05;35.70;;;;;;;;;;4816508;29;20066;-82
2022/10/11 04:06:55;;;;;;;39.75;32.40;;;;;;;;;;4757272;30;20011;-83
2022/10/11 04:19:06;;;;;;;48.40;35.53;;;;;;;;;;4770966;30;20059;-82
2022/10/11 04:33:38;;;;;;;43.97;34.30;;;;;;;;;;4910897;29;20045;-83
2022/10/11 04:36:55;;;;;;;52.42;34.42;;;;;;;;;;4909337;29;20036;-83
2022/10/11 04:43:15;;;;;;;47.13;35.60;;;;;;;;;;4862919;29;20033;-82
2022/10/11 04:46:24;;;;;;;43.78;35.70;;;;;;;;;;4778049;29;20027;-83
2022/10/11 04:49:34;;;;;;;51.10;36.78;;;;;;;;;;4759701;29;20040;-82
2022/10/11 04:52:08;;;;;;;50.90;38.38;;;;;;;;;;4760227;29;20097;-80
2022/10/11 05:18:05;;;;;;;49.33;37.60;;;;;;;;;;5322297;23;20356;-79
2022/10/11 05:23:37;;;;;;;46.47;33.22;;;;;;;;;;4918919;29;20032;-76
2022/10/11 05:26:09;;;;;;;52.95;35.65;;;;;;;;;;4898039;29;20024;-80
2022/10/11 05:28:37;;;;;;;46.55;34.08;;;;;;;;;;4886077;29;20041;-76
2022/10/11 05:31:18;;;;;;;42.00;32.60;;;;;;;;;;4907294;29;20044;-78
2022/10/11 05:33:44;;;;;;;41.35;31.73;;;;;;;;;;4907426;29;20117;-78
2022/10/11 05:36:11;;;;;;;38.90;30.73;;;;;;;;;;4914200;29;20039;-78
2022/10/11 05:38:41;;;;;;;39.78;31.58;;;;;;;;;;4900337;29;20467;-78
2022/10/11 05:41:17;;;;;;;41.20;31.73;;;;;;;;;;4895246;29;20053;-78
2022/10/11 05:43:44;;;;;;;42.67;31.30;;;;;;;;;;4906757;29;20032;-78
2022/10/11 05:46:15;;;;;;;39.13;29.88;;;;;;;;;;4891669;29;20029;-78
2022/10/11 05:48:44;;;;;;;36.70;28.92;;;;;;;;;;4889864;29;20045;-75
2022/10/11 05:51:13;;;;;;;68.10;40.40;;;;;;;;;;4899041;29;20036;-76
2022/10/11 05:53:39;;;;;;;740.38;498.63;;;;;;;;;;4883767;29;20033;-76
2022/10/11 05:56:16;;;;;;;757.38;552.22;;;;;;;;;;4894075;29;20198;-78
2022/10/11 05:58:42;;;;;;;47.42;33.42;;;;;;;;;;4901764;29;20811;-78
2022/10/11 06:01:15;;;;;;;38.90;28.17;;;;;;;;;;4891045;29;20059;-78
2022/10/11 06:03:41;;;;;;;40.05;29.83;;;;;;;;;;4889928;29;20073;-75
2022/10/11 06:06:07;;;;;;;48.45;33.35;;;;;;;;;;4885484;29;20089;-78
2022/10/11 06:08:33;;;;;;;42.60;27.50;;;;;;;;;;4885031;29;20029;-77
2022/10/11 06:11:08;;;;;;;38.88;22.85;;;;;;;;;;4889333;29;20037;-78
2022/10/11 06:13:34;;;;;;;39.83;24.02;;;;;;;;;;4891767;29;20029;-77
2022/10/11 12:13:21;;;;;;;31.83;23.70;;;;;;;;;;6263975;22;20027;-83
2022/10/11 12:16:35;;;;;;;30.35;23.17;;;;;;;;;;5445086;22;18123222;-81
2022/10/11 12:19:19;;;;;;;31.58;23.92;;;;;;;;;;6106607;23;20007;-83
2022/10/11 12:22:37;;;;;;;38.72;28.33;;;;;;;;;;6043529;23;20179;-80
2022/10/11 12:31:32;;;;;;;33.60;24.50;;;;;;;;;;6250780;23;20030;-82
2022/10/11 12:37:43;;;;;;;31.30;23.42;;;;;;;;;;6292065;22;20019;-82
2022/10/11 12:43:44;;;;;;;30.33;25.88;;;;;;;;;;6191775;23;20036;-82
2022/10/11 12:55:37;;;;;;;29.92;22.27;;;;;;;;;;6267334;22;20008;-83
2022/10/11 12:58:40;;;;;;;27.70;22.48;;;;;;;;;;6188381;23;20040;-81
2022/10/11 13:01:21;;;;;;;31.27;22.70;;;;;;;;;;6176577;23;20013;-84
2022/10/11 13:04:12;;;;;;;27.23;21.40;;;;;;;;;;6182721;23;20219;-84
2022/10/11 13:07:13;;;;;;;32.20;22.25;;;;;;;;;;6152975;23;20030;-83
2022/10/11 13:10:09;;;;;;;27.38;21.35;;;;;;;;;;6153849;23;19994;-81
2022/10/11 13:13:03;;;;;;;30.73;21.35;;;;;;;;;;6105608;23;20050;-80
2022/10/11 13:28:48;;;;;;;29.88;20.92;;;;;;;;;;6255819;22;20028;-84
2022/10/11 13:31:50;;;;;;;31.23;20.58;;;;;;;;;;6247392;22;20015;-85
2022/10/11 13:34:56;;;;;;;24.52;21.27;;;;;;;;;;6270657;22;20052;-86
2022/10/11 13:46:03;;;;;;;22.52;19.70;;;;;;;;;;6247072;22;20004;-82
2022/10/11 13:49:37;;;;;;;43.00;24.35;;;;;;;;;;6209954;23;19993;-83
2022/10/11 13:52:24;;;;;;;41.20;26.33;;;;;;;;;;6151970;23;20025;-78
2022/10/11 13:55:15;;;;;;;22.75;18.80;;;;;;;;;;6126529;23;20009;-84
2022/10/11 13:58:05;;;;;;;22.48;17.75;;;;;;;;;;6105085;23;20014;-84
2022/10/11 14:01:15;;;;;;;23.10;17.88;;;;;;;;;;6095785;23;20050;-89
2022/10/11 14:04:24;;;;;;;22.38;17.65;;;;;;;;;;6095536;23;20002;-79
2022/10/11 14:07:29;;;;;;;25.33;17.95;;;;;;;;;;6034163;23;20080;-81
2022/10/11 14:10:26;;;;;;;29.98;18.17;;;;;;;;;;6012301;23;20067;-81
2022/10/11 14:13:06;;;;;;;24.20;17.27;;;;;;;;;;6034916;23;19996;-79
2022/10/11 14:15:38;;;;;;;25.95;18.30;;;;;;;;;;6011681;23;20012;-80
2022/10/11 14:18:43;;;;;;;26.33;18.25;;;;;;;;;;6036561;23;20071;-79
2022/10/11 14:21:33;;;;;;;23.90;18.08;;;;;;;;;;6037710;23;20016;-83
2022/10/11 14:24:28;;;;;;;24.85;19.02;;;;;;;;;;6038016;23;20012;-84
2022/10/11 14:27:37;;;;;;;23.38;18.05;;;;;;;;;;6038763;23;20000;-85
2022/10/11 14:30:58;;;;;;;26.85;18.52;;;;;;;;;;5899027;24;20057;-83
2022/10/11 14:36:25;;;;;;;27.80;18.40;;;;;;;;;;6247312;22;20493;-86
2022/10/11 14:38:55;;;;;;;22.35;18.55;;;;;;;;;;6238545;23;20124;-79
2022/10/11 14:41:26;;;;;;;26.35;18.67;;;;;;;;;;6238084;23;20009;-77
2022/10/11 14:43:58;;;;;;;23.88;18.08;;;;;;;;;;6236220;23;20424;-82
2022/10/11 14:46:27;;;;;;;27.73;19.35;;;;;;;;;;6239287;23;20005;-88
2022/10/11 14:48:54;;;;;;;25.88;18.98;;;;;;;;;;6214950;23;20012;-73
2022/10/11 14:51:29;;;;;;;32.25;18.90;;;;;;;;;;6214001;23;20419;-74
2022/10/11 14:53:55;;;;;;;26.25;19.30;;;;;;;;;;6213498;23;20004;-74
2022/10/11 14:56:21;;;;;;;22.98;19.25;;;;;;;;;;6216247;23;20051;-73
2022/10/11 14:58:47;;;;;;;26.50;18.85;;;;;;;;;;6215066;23;20012;-76
2022/10/11 15:01:14;;;;;;;21.88;18.85;;;;;;;;;;6214229;23;20100;-74
2022/10/11 15:03:40;;;;;;;23.58;18.77;;;;;;;;;;6214024;23;20071;-73
2022/10/11 15:06:12;;;;;;;32.35;21.05;;;;;;;;;;6214859;23;20024;-74
2022/10/11 15:08:38;;;;;;;28.10;20.35;;;;;;;;;;6220042;23;20078;-76
2022/10/11 15:11:04;;;;;;;27.20;20.90;;;;;;;;;;6221641;23;20004;-76
2022/10/11 15:13:35;;;;;;;37.17;24.73;;;;;;;;;;6228227;23;20024;-76
2022/10/11 15:16:02;;;;;;;94.45;63.70;;;;;;;;;;6285820;22;20045;-79
2022/10/11 15:18:28;;;;;;;72.05;51.90;;;;;;;;;;6271990;22;20019;-77
2022/10/11 15:20:54;;;;;;;46.40;38.03;;;;;;;;;;6266260;22;20012;-76
2022/10/11 15:23:21;;;;;;;42.95;35.63;;;;;;;;;;6284402;22;20425;-77
2022/10/11 15:25:47;;;;;;;47.67;35.22;;;;;;;;;;6287539;22;20011;-78
2022/10/11 15:28:33;;;;;;;109.43;76.85;;;;;;;;;;6292608;22;20048;-75
2022/10/11 15:31:05;;;;;;;72.53;50.17;;;;;;;;;;6273570;22;20011;-76
2022/10/11 15:33:33;;;;;;;40.58;28.15;;;;;;;;;;6293174;22;20004;-76
2022/10/11 15:35:59;;;;;;;33.25;24.90;;;;;;;;;;6296984;22;20006;-74
2022/10/11 15:38:25;;;;;;;32.08;24.13;;;;;;;;;;6298805;22;19999;-76
2022/10/11 15:40:52;;;;;;;28.08;24.02;;;;;;;;;;6273819;22;20007;-76
2022/10/11 15:43:18;;;;;;;30.58;24.92;;;;;;;;;;6297913;22;20061;-72
2022/10/11 15:45:44;;;;;;;33.28;25.05;;;;;;;;;;6297537;22;20016;-72
2022/10/11 15:48:13;;;;;;;31.25;26.58;;;;;;;;;;6293747;22;20030;-77
2022/10/11 15:50:40;;;;;;;32.10;25.80;;;;;;;;;;6279726;22;20031;-76
2022/10/11 15:53:11;;;;;;;34.25;24.95;;;;;;;;;;6261671;22;20011;-78
2022/10/11 15:55:39;;;;;;;34.60;26.67;;;;;;;;;;6282291;22;20074;-76
2022/10/11 15:58:05;;;;;;;37.20;26.60;;;;;;;;;;6282905;22;20398;-74
2022/10/11 16:00:31;;;;;;;38.28;27.30;;;;;;;;;;6281600;22;19999;-77
2022/10/11 16:02:58;;;;;;;39.65;28.92;;;;;;;;;;6279861;22;20004;-76
2022/10/11 16:05:25;;;;;;;34.25;28.65;;;;;;;;;;6278047;22;20086;-78
2022/10/11 16:07:52;;;;;;;40.20;29.25;;;;;;;;;;6278562;22;20055;-75
2022/10/11 16:10:18;;;;;;;40.65;29.23;;;;;;;;;;6276737;22;20004;-77
2022/10/11 16:12:44;;;;;;;41.28;29.80;;;;;;;;;;6277464;22;20061;-77
2022/10/11 16:15:11;;;;;;;43.08;31.00;;;;;;;;;;6278016;22;20086;-77
2022/10/11 16:17:37;;;;;;;45.95;33.72;;;;;;;;;;6279707;22;20078;-75
2022/10/11 16:20:05;;;;;;;48.97;36.08;;;;;;;;;;6279318;22;20000;-76
2022/10/11 16:22:32;;;;;;;59.55;41.63;;;;;;;;;;6277684;22;20425;-76
2022/10/11 16:24:59;;;;;;;52.30;38.90;;;;;;;;;;6276858;22;20023;-77
2022/10/11 16:27:25;;;;;;;83.25;53.72;;;;;;;;;;6282578;22;19999;-76
2022/10/11 16:29:51;;;;;;;75.18;53.63;;;;;;;;;;6276629;22;20428;-75
2022/10/11 16:32:18;;;;;;;68.22;50.58;;;;;;;;;;6275791;22;20441;-76
2022/10/11 16:34:44;;;;;;;62.53;44.38;;;;;;;;;;6278459;22;20059;-77
2022/10/11 16:37:11;;;;;;;56.58;41.45;;;;;;;;;;6281659;22;20022;-75
2022/10/11 16:39:38;;;;;;;51.67;37.67;;;;;;;;;;6281115;22;20015;-77
2022/10/11 16:42:04;;;;;;;49.22;38.60;;;;;;;;;;6284410;22;20026;-77
2022/10/11 16:44:31;;;;;;;52.60;39.17;;;;;;;;;;6284783;22;20425;-76
2022/10/11 16:46:58;;;;;;;47.80;38.22;;;;;;;;;;6286684;22;20011;-76
2022/10/11 16:49:26;;;;;;;45.38;36.78;;;;;;;;;;6282976;22;20031;-76
2022/10/11 16:51:53;;;;;;;49.17;38.03;;;;;;;;;;6282766;22;19996;-77
2022/10/11 16:54:19;;;;;;;47.63;38.20;;;;;;;;;;6289374;22;20007;-78
2022/10/11 16:56:46;;;;;;;51.45;38.15;;;;;;;;;;6283390;22;20004;-76
2022/10/11 16:59:12;;;;;;;48.40;37.78;;;;;;;;;;6280430;22;20012;-76
2022/10/11 17:01:38;;;;;;;49.33;38.83;;;;;;;;;;6279146;22;20023;-78
2022/10/11 17:04:04;;;;;;;54.58;39.65;;;;;;;;;;6279781;22;19999;-76
2022/10/11 17:06:31;;;;;;;50.13;40.80;;;;;;;;;;6283084;22;20022;-75
2022/10/11 17:08:57;;;;;;;56.40;40.97;;;;;;;;;;6281560;22;20007;-77
2022/10/11 17:11:23;;;;;;;57.60;42.38;;;;;;;;;;6283913;22;20004;-77
2022/10/11 17:13:52;;;;;;;52.92;42.25;;;;;;;;;;6281226;22;20487;-77
2022/10/11 17:16:18;;;;;;;54.33;42.95;;;;;;;;;;6278461;22;20015;-76
2022/10/11 17:18:44;;;;;;;57.95;42.25;;;;;;;;;;6250441;22;20011;-76
2022/10/11 17:21:12;;;;;;;50.28;41.10;;;;;;;;;;6277547;22;20035;-76
2022/10/11 17:23:38;;;;;;;55.72;42.28;;;;;;;;;;6276970;22;20434;-76
2022/10/11 17:26:06;;;;;;;57.63;43.20;;;;;;;;;;6275963;22;20011;-76
2022/10/11 17:28:32;;;;;;;56.78;43.55;;;;;;;;;;6278264;22;20078;-76
2022/10/11 17:30:58;;;;;;;54.22;44.80;;;;;;;;;;6277231;22;20041;-75
2022/10/11 17:33:25;;;;;;;57.60;44.55;;;;;;;;;;6277032;22;20008;-77
2022/10/11 17:36:00;;;;;;;53.40;43.45;;;;;;;;;;6282024;22;19996;-78
2022/10/11 17:38:27;;;;;;;54.42;44.90;;;;;;;;;;6277431;22;20019;-76
2022/10/11 17:41:03;;;;;;;55.85;44.42;;;;;;;;;;6254043;22;20051;-78
2022/10/11 17:43:30;;;;;;;56.40;44.92;;;;;;;;;;6279794;22;19999;-78
2022/10/11 17:45:57;;;;;;;52.08;44.33;;;;;;;;;;6278083;22;20002;-77
2022/10/11 17:48:23;;;;;;;56.63;45.13;;;;;;;;;;6275848;22;20000;-77
2022/10/11 17:50:49;;;;;;;52.75;43.33;;;;;;;;;;6276904;22;20334;-77
2022/10/11 17:53:16;;;;;;;53.50;44.70;;;;;;;;;;6276641;22;19996;-77
2022/10/11 17:55:42;;;;;;;56.78;44.78;;;;;;;;;;6250202;22;20019;-77
2022/10/11 17:58:09;;;;;;;63.90;52.58;;;;;;;;;;6276629;22;20315;-77
2022/10/11 18:00:36;;;;;;;66.75;52.00;;;;;;;;;;6276416;22;20433;-77
2022/10/11 18:03:02;;;;;;;62.85;49.63;;;;;;;;;;6276439;22;20027;-78
2022/10/11 18:05:28;;;;;;;59.00;48.33;;;;;;;;;;6278305;22;20027;-78
2022/10/11 18:07:54;;;;;;;58.42;47.15;;;;;;;;;;6251205;22;20000;-78
2022/10/11 18:10:21;;;;;;;59.60;50.15;;;;;;;;;;6278471;22;20030;-78
2022/10/11 18:12:47;;;;;;;61.20;49.67;;;;;;;;;;6278395;22;20329;-77
2022/10/11 18:15:13;;;;;;;59.35;51.10;;;;;;;;;;6277609;22;20022;-77
2022/10/11 18:17:39;;;;;;;64.32;50.67;;;;;;;;;;6277958;22;20010;-77
2022/10/11 18:20:05;;;;;;;67.30;55.28;;;;;;;;;;6278326;22;20003;-77
2022/10/11 18:22:32;;;;;;;61.00;50.60;;;;;;;;;;6277936;22;19996;-77
2022/10/11 18:24:58;;;;;;;68.00;51.83;;;;;;;;;;6277939;22;20433;-78
2022/10/11 18:27:24;;;;;;;69.35;53.53;;;;;;;;;;6278157;22;20426;-77
2022/10/11 18:29:50;;;;;;;66.70;54.90;;;;;;;;;;6250578;22;20003;-77
2022/10/11 18:32:17;;;;;;;61.92;52.13;;;;;;;;;;6277574;22;20000;-77
2022/10/11 18:34:43;;;;;;;65.40;53.88;;;;;;;;;;6277161;22;20030;-76
2022/10/11 18:37:09;;;;;;;66.32;56.05;;;;;;;;;;6276309;22;20376;-77
2022/10/11 18:39:35;;;;;;;66.78;57.38;;;;;;;;;;6278131;22;20008;-77
2022/10/11 18:42:04;;;;;;;74.72;59.42;;;;;;;;;;6277667;22;20004;-77
2022/10/11 18:44:30;;;;;;;70.90;58.72;;;;;;;;;;6277287;22;20436;-78
2022/10/11 18:46:57;;;;;;;69.57;57.83;;;;;;;;;;6277356;22;20008;-78
2022/10/11 18:49:23;;;;;;;75.90;60.80;;;;;;;;;;6277875;22;20041;-77
2022/10/11 18:51:49;;;;;;;76.55;59.17;;;;;;;;;;6277468;22;20440;-77
2022/10/11 18:54:17;;;;;;;74.88;60.67;;;;;;;;;;6276628;22;19996;-77
2022/10/11 18:56:44;;;;;;;71.38;59.22;;;;;;;;;;6276373;22;20095;-77
2022/10/11 18:59:10;;;;;;;70.75;56.42;;;;;;;;;;6277174;22;20010;-77
2022/10/11 19:01:39;;;;;;;70.57;55.65;;;;;;;;;;6275088;22;20004;-77
2022/10/11 19:04:06;;;;;;;69.85;57.00;;;;;;;;;;6276910;22;20026;-77
2022/10/11 19:06:37;;;;;;;62.72;52.83;;;;;;;;;;6276115;22;20417;-77
2022/10/11 19:09:05;;;;;;;70.93;55.83;;;;;;;;;;6277884;22;20004;-78
2022/10/11 19:11:31;;;;;;;71.63;55.33;;;;;;;;;;6276187;22;20010;-77
2022/10/11 19:13:58;;;;;;;68.38;55.50;;;;;;;;;;6277737;22;20448;-77
2022/10/11 19:16:25;;;;;;;65.38;53.33;;;;;;;;;;6277641;22;20336;-77
2022/10/11 19:18:52;;;;;;;71.22;55.05;;;;;;;;;;6277331;22;20353;-77
2022/10/11 19:21:18;;;;;;;70.20;53.45;;;;;;;;;;6278099;22;20063;-78
2022/10/11 19:23:45;;;;;;;67.35;50.30;;;;;;;;;;6278400;22;20083;-77
2022/10/11 19:26:18;;;;;;;64.90;52.58;;;;;;;;;;6277533;22;20007;-77
2022/10/11 19:28:44;;;;;;;61.15;52.92;;;;;;;;;;6275448;22;20038;-77
2022/10/11 19:31:11;;;;;;;68.82;53.60;;;;;;;;;;6275260;22;20048;-77
2022/10/11 19:33:38;;;;;;;64.47;52.05;;;;;;;;;;6276665;22;20004;-77
2022/10/11 19:36:05;;;;;;;69.75;54.28;;;;;;;;;;6275580;22;20057;-77
2022/10/11 19:38:32;;;;;;;66.63;54.78;;;;;;;;;;6277443;22;20322;-77
2022/10/11 19:41:02;;;;;;;68.78;55.00;;;;;;;;;;6276562;22;19996;-77
2022/10/11 19:43:29;;;;;;;64.50;51.70;;;;;;;;;;6277356;22;20011;-77
2022/10/11 19:46:01;;;;;;;66.35;53.40;;;;;;;;;;6277679;22;19992;-77
2022/10/11 19:48:27;;;;;;;69.55;54.45;;;;;;;;;;6277045;22;20026;-78
2022/10/11 19:51:00;;;;;;;66.18;53.10;;;;;;;;;;6276064;22;19996;-77
2022/10/11 19:53:26;;;;;;;71.20;55.95;;;;;;;;;;6278237;22;20067;-78
2022/10/11 19:55:53;;;;;;;67.40;52.97;;;;;;;;;;6277468;22;20015;-77
2022/10/11 19:58:19;;;;;;;77.95;58.38;;;;;;;;;;6275057;22;20011;-79
2022/10/11 20:00:45;;;;;;;76.35;55.35;;;;;;;;;;6276598;22;20004;-77
2022/10/11 20:03:11;;;;;;;70.43;56.20;;;;;;;;;;6274985;22;20429;-77
2022/10/11 20:05:37;;;;;;;68.05;54.70;;;;;;;;;;6275854;22;20022;-77
2022/10/11 20:08:03;;;;;;;75.28;59.83;;;;;;;;;;6249458;22;20003;-77
2022/10/11 20:10:29;;;;;;;73.15;58.15;;;;;;;;;;6250981;22;20058;-77
2022/10/11 20:12:55;;;;;;;76.38;59.58;;;;;;;;;;6277996;22;20375;-77
2022/10/11 20:15:21;;;;;;;67.88;54.58;;;;;;;;;;6278861;22;20062;-77
2022/10/11 20:17:47;;;;;;;70.32;56.33;;;;;;;;;;6279075;22;20030;-78
2022/10/11 20:20:14;;;;;;;70.70;53.60;;;;;;;;;;6279344;22;20000;-77
2022/10/11 20:22:40;;;;;;;69.03;54.97;;;;;;;;;;6251117;22;20008;-76
2022/10/11 20:25:06;;;;;;;72.60;56.40;;;;;;;;;;6277999;22;20011;-77
2022/10/11 20:27:32;;;;;;;72.22;58.42;;;;;;;;;;6277627;22;20019;-77
2022/10/11 20:29:58;;;;;;;66.32;52.08;;;;;;;;;;6277280;22;20075;-77
2022/10/11 20:32:24;;;;;;;65.30;53.45;;;;;;;;;;6278680;22;20000;-77
2022/10/11 20:34:50;;;;;;;147.32;110.90;;;;;;;;;;6251336;22;20011;-77
2022/10/11 20:37:16;;;;;;;84.30;66.53;;;;;;;;;;6277821;22;20023;-76
2022/10/11 20:39:42;;;;;;;77.00;55.15;;;;;;;;;;6278613;22;20014;-78
2022/10/11 20:42:09;;;;;;;67.55;52.58;;;;;;;;;;6278586;22;20057;-77
2022/10/11 20:44:35;;;;;;;66.47;54.42;;;;;;;;;;6278991;22;20421;-77
2022/10/11 20:47:01;;;;;;;65.68;53.25;;;;;;;;;;6279689;22;20000;-78
2022/10/11 20:49:27;;;;;;;67.60;55.35;;;;;;;;;;6279645;22;20007;-77
2022/10/11 20:51:53;;;;;;;63.15;52.30;;;;;;;;;;6279275;22;20413;-78
2022/10/11 20:54:19;;;;;;;69.15;53.85;;;;;;;;;;6278775;22;20078;-78
2022/10/11 20:56:45;;;;;;;66.57;54.42;;;;;;;;;;6278737;22;20004;-78
2022/10/11 20:59:11;;;;;;;69.28;55.33;;;;;;;;;;6278811;22;20012;-78
2022/10/11 21:01:39;;;;;;;72.30;56.40;;;;;;;;;;6280360;22;20063;-78
2022/10/11 21:04:05;;;;;;;78.25;59.28;;;;;;;;;;6252996;22;20003;-78
2022/10/11 21:06:32;;;;;;;73.75;56.60;;;;;;;;;;6278389;22;20000;-78
2022/10/11 21:08:59;;;;;;;69.32;54.42;;;;;;;;;;6278927;22;20003;-78
2022/10/11 21:11:29;;;;;;;74.05;55.33;;;;;;;;;;6279436;22;20071;-79
2022/10/11 21:13:56;;;;;;;79.00;58.78;;;;;;;;;;6280253;22;20321;-77
2022/10/11 21:16:22;;;;;;;69.47;52.92;;;;;;;;;;6279039;22;20015;-78
2022/10/11 21:18:52;;;;;;;67.18;52.40;;;;;;;;;;6278962;22;20083;-77
2022/10/11 21:21:18;;;;;;;68.45;52.67;;;;;;;;;;6276723;22;20053;-78
2022/10/11 21:23:44;;;;;;;70.75;55.42;;;;;;;;;;6278375;22;20030;-77
2022/10/11 21:26:12;;;;;;;71.85;55.08;;;;;;;;;;6277846;22;20012;-78
2022/10/11 21:28:38;;;;;;;72.88;55.17;;;;;;;;;;6251271;22;20000;-77
2022/10/11 21:31:08;;;;;;;67.45;53.45;;;;;;;;;;6278092;22;20000;-77
2022/10/11 21:33:35;;;;;;;73.18;53.85;;;;;;;;;;6276730;22;20006;-77
2022/10/11 21:36:05;;;;;;;69.15;52.50;;;;;;;;;;6277276;22;20006;-77
2022/10/11 21:38:31;;;;;;;69.65;51.88;;;;;;;;;;6278257;22;20011;-77
2022/10/11 21:40:57;;;;;;;68.28;51.30;;;;;;;;;;6251115;22;20004;-77
2022/10/11 21:43:23;;;;;;;75.90;55.55;;;;;;;;;;6276826;22;20026;-77
2022/10/11 21:45:50;;;;;;;69.82;54.22;;;;;;;;;;6277721;22;20063;-78
2022/10/11 21:48:16;;;;;;;72.35;54.88;;;;;;;;;;6278233;22;20004;-77
2022/10/11 21:50:42;;;;;;;66.70;51.55;;;;;;;;;;6278474;22;20064;-77
2022/10/11 21:53:08;;;;;;;66.13;52.10;;;;;;;;;;6277909;22;20004;-78
2022/10/11 21:55:34;;;;;;;68.15;51.35;;;;;;;;;;6278253;22;20004;-77
2022/10/11 21:58:00;;;;;;;62.63;50.72;;;;;;;;;;6277894;22;20333;-77
2022/10/11 22:00:27;;;;;;;60.78;49.88;;;;;;;;;;6278523;22;20337;-77
2022/10/11 22:02:53;;;;;;;65.63;52.85;;;;;;;;;;6277709;22;20005;-77
2022/10/11 22:05:19;;;;;;;64.40;51.60;;;;;;;;;;6278101;22;20006;-78
2022/10/11 22:07:45;;;;;;;67.03;52.33;;;;;;;;;;6277550;22;20417;-77
2022/10/11 22:10:11;;;;;;;67.70;52.72;;;;;;;;;;6250354;22;20382;-77
2022/10/11 22:12:37;;;;;;;70.40;51.88;;;;;;;;;;6275829;22;20007;-77
2022/10/11 22:15:03;;;;;;;68.88;51.05;;;;;;;;;;6277018;22;20087;-76
2022/10/11 22:17:29;;;;;;;71.93;52.35;;;;;;;;;;6277160;22;20008;-77
2022/10/11 22:19:55;;;;;;;64.57;50.80;;;;;;;;;;6276338;22;20000;-76
2022/10/11 22:22:21;;;;;;;63.33;51.50;;;;;;;;;;6276952;22;20084;-76
2022/10/11 22:24:47;;;;;;;65.40;51.45;;;;;;;;;;6277342;22;19996;-77
2022/10/11 22:27:13;;;;;;;65.30;51.95;;;;;;;;;;6277262;22;20006;-77
2022/10/11 22:29:39;;;;;;;73.95;54.20;;;;;;;;;;6277113;22;20003;-77
2022/10/11 22:32:05;;;;;;;67.78;52.58;;;;;;;;;;6276526;22;20003;-77
2022/10/11 22:34:32;;;;;;;68.20;52.90;;;;;;;;;;6277276;22;19995;-77
2022/10/11 22:36:58;;;;;;;70.20;51.75;;;;;;;;;;6249750;22;20429;-77
2022/10/11 22:39:24;;;;;;;68.70;51.40;;;;;;;;;;6276665;22;20401;-76
2022/10/11 22:41:52;;;;;;;64.28;52.30;;;;;;;;;;6276455;22;20030;-77
2022/10/11 22:44:18;;;;;;;64.00;53.42;;;;;;;;;;6276310;22;20000;-77
2022/10/11 22:46:44;;;;;;;63.97;50.75;;;;;;;;;;6276550;22;20058;-77
2022/10/11 22:49:10;;;;;;;67.03;53.05;;;;;;;;;;6275300;22;20000;-78
2022/10/11 22:51:36;;;;;;;66.53;52.53;;;;;;;;;;6275060;22;20006;-77
2022/10/11 22:54:02;;;;;;;73.07;50.83;;;;;;;;;;6276360;22;20004;-77
2022/10/11 22:56:28;;;;;;;73.05;53.63;;;;;;;;;;6276595;22;20007;-78
2022/10/11 22:58:54;;;;;;;64.65;51.65;;;;;;;;;;6276699;22;20051;-77
2022/10/11 23:01:20;;;;;;;66.55;53.50;;;;;;;;;;6276630;22;20000;-77
2022/10/11 23:03:48;;;;;;;68.18;53.05;;;;;;;;;;6277471;22;20006;-77
2022/10/11 23:06:14;;;;;;;66.75;52.22;;;;;;;;;;6277652;22;20447;-77
2022/10/11 23:08:40;;;;;;;66.45;52.60;;;;;;;;;;6276511;22;20000;-77
2022/10/11 23:11:07;;;;;;;64.88;52.72;;;;;;;;;;6248200;22;20027;-77
2022/10/11 23:13:33;;;;;;;71.32;54.38;;;;;;;;;;6249888;22;20049;-77
2022/10/11 23:15:59;;;;;;;73.20;54.25;;;;;;;;;;6276423;22;20392;-77
2022/10/11 23:18:25;;;;;;;65.63;52.20;;;;;;;;;;6276837;22;20011;-77
2022/10/11 23:20:51;;;;;;;75.10;57.33;;;;;;;;;;6276633;22;19999;-76
2022/10/11 23:23:18;;;;;;;70.07;53.60;;;;;;;;;;6276667;22;20417;-77
2022/10/11 23:25:44;;;;;;;78.88;56.20;;;;;;;;;;6277657;22;20008;-77
2022/10/11 23:28:10;;;;;;;73.15;54.67;;;;;;;;;;6277415;22;20007;-77
2022/10/11 23:30:39;;;;;;;70.55;54.60;;;;;;;;;;6276080;22;20026;-77
2022/10/11 23:33:05;;;;;;;70.32;55.67;;;;;;;;;;6276840;22;20042;-77
2022/10/11 23:35:31;;;;;;;66.40;52.97;;;;;;;;;;6276893;22;20433;-77
2022/10/11 23:37:57;;;;;;;70.60;55.03;;;;;;;;;;6275678;22;20065;-77
2022/10/11 23:40:23;;;;;;;70.35;53.08;;;;;;;;;;6277143;22;20425;-77
2022/10/11 23:42:49;;;;;;;70.28;53.85;;;;;;;;;;6276312;22;20414;-77
2022/10/11 23:45:15;;;;;;;65.93;53.72;;;;;;;;;;6277125;22;20000;-77
2022/10/11 23:47:41;;;;;;;74.82;56.72;;;;;;;;;;6276725;22;20000;-77
2022/10/11 23:50:07;;;;;;;73.35;55.20;;;;;;;;;;6276199;22;20030;-77
2022/10/11 23:52:33;;;;;;;77.45;56.22;;;;;;;;;;6276356;22;20022;-77
2022/10/11 23:54:59;;;;;;;69.30;55.17;;;;;;;;;;6275631;22;20068;-76
2022/10/11 23:57:26;;;;;;;73.10;55.85;;;;;;;;;;6276519;22;20000;-77
2022/10/11 23:59:52;;;;;;;68.13;56.35;;;;;;;;;;6276237;22;20003;-77
